createdAt,value
2018-12-02T00:00:43.718Z,4.70
2018-12-02T00:03:12.087Z,4.70
2018-12-02T00:05:40.512Z,4.70
2018-12-02T00:08:09.006Z,4.70
2018-12-02T00:10:37.716Z,4.70
2018-12-02T00:13:06.120Z,4.70
2018-12-02T00:15:37.036Z,4.70
2018-12-02T00:18:08.889Z,4.70
2018-12-02T00:20:37.327Z,4.80
2018-12-02T00:23:06.843Z,4.80
2018-12-02T00:25:35.597Z,4.80
2018-12-02T00:28:04.127Z,4.70
2018-12-02T00:30:32.754Z,4.80
2018-12-02T00:33:01.142Z,4.80
2018-12-02T00:35:29.536Z,4.80
2018-12-02T00:37:59.280Z,4.80
2018-12-02T00:40:27.672Z,4.80
2018-12-02T00:42:59.821Z,4.80
2018-12-02T00:45:30.442Z,4.90
2018-12-02T00:47:58.919Z,4.90
2018-12-02T00:50:27.410Z,4.90
2018-12-02T00:52:57.920Z,4.90
2018-12-02T00:55:28.691Z,4.90
2018-12-02T00:57:57.119Z,4.80
2018-12-02T01:00:25.596Z,4.90
2018-12-02T01:02:53.953Z,4.90
2018-12-02T01:05:22.785Z,4.90
2018-12-02T01:07:51.207Z,4.90
2018-12-02T01:10:26.847Z,4.90
2018-12-02T01:12:56.597Z,5.00
2018-12-02T01:15:27.153Z,5.00
2018-12-02T01:17:55.489Z,5.00
2018-12-02T01:20:24.413Z,5.00
2018-12-02T01:22:52.789Z,5.00
2018-12-02T01:25:21.201Z,5.00
2018-12-02T01:27:49.863Z,5.00
2018-12-02T01:30:22.241Z,5.00
2018-12-02T01:32:52.437Z,5.00
2018-12-02T01:35:20.833Z,4.90
2018-12-02T01:37:49.227Z,4.90
2018-12-02T01:40:19.471Z,5.00
2018-12-02T01:42:48.100Z,5.00
2018-12-02T01:45:20.397Z,5.00
2018-12-02T01:47:48.793Z,5.00
2018-12-02T01:50:18.224Z,5.00
2018-12-02T01:52:48.488Z,5.00
2018-12-02T01:55:16.859Z,5.10
2018-12-02T01:57:45.555Z,5.10
2018-12-02T02:00:16.905Z,5.10
2018-12-02T02:02:45.243Z,5.10
2018-12-02T02:05:14.158Z,5.10
2018-12-02T02:07:42.987Z,5.10
2018-12-02T02:10:16.598Z,5.10
2018-12-02T02:12:45.131Z,5.20
2018-12-02T02:15:14.514Z,5.10
2018-12-02T02:17:42.927Z,5.20
2018-12-02T02:20:13.363Z,5.10
2018-12-02T02:22:41.977Z,5.20
2018-12-02T02:25:11.241Z,5.20
2018-12-02T02:27:40.656Z,5.20
2018-12-02T02:30:11.797Z,5.30
2018-12-02T02:32:40.220Z,5.30
2018-12-02T02:35:09.044Z,5.30
2018-12-02T02:37:37.427Z,5.30
2018-12-02T02:40:11.728Z,5.30
2018-12-02T02:42:40.120Z,5.30
2018-12-02T02:45:09.428Z,5.20
2018-12-02T02:47:37.811Z,5.30
2018-12-02T02:50:13.488Z,5.30
2018-12-02T02:52:44.900Z,5.30
2018-12-02T02:55:13.261Z,5.30
2018-12-02T02:57:41.612Z,5.30
2018-12-02T03:00:13.782Z,5.30
2018-12-02T03:02:42.157Z,5.30
2018-12-02T03:05:11.780Z,5.30
2018-12-02T03:07:40.231Z,5.30
2018-12-02T03:10:10.885Z,5.20
2018-12-02T03:12:39.257Z,5.30
2018-12-02T03:15:11.839Z,5.20
2018-12-02T03:17:40.349Z,5.30
2018-12-02T03:20:11.164Z,5.30
2018-12-02T03:22:39.881Z,5.30
2018-12-02T03:25:10.829Z,5.30
2018-12-02T03:27:39.219Z,5.30
2018-12-02T03:30:10.870Z,5.30
2018-12-02T03:32:39.674Z,5.30
2018-12-02T03:35:10.096Z,5.30
2018-12-02T03:37:38.544Z,5.40
2018-12-02T03:40:13.279Z,5.30
2018-12-02T03:42:41.716Z,5.40
2018-12-02T03:45:11.487Z,5.30
2018-12-02T03:47:39.859Z,5.40
2018-12-02T03:50:23.427Z,5.40
2018-12-02T03:52:51.816Z,5.40
2018-12-02T03:55:20.191Z,5.40
2018-12-02T03:57:48.543Z,5.40
2018-12-02T04:00:26.166Z,5.40
2018-12-02T04:02:55.428Z,5.40
2018-12-02T04:05:25.394Z,5.40
2018-12-02T04:07:53.837Z,5.50
2018-12-02T04:10:22.443Z,5.40
2018-12-02T04:12:51.658Z,5.50
2018-12-02T04:15:21.891Z,5.50
2018-12-02T04:17:50.303Z,5.50
2018-12-02T04:20:19.274Z,5.50
2018-12-02T04:22:48.640Z,5.60
2018-12-02T04:25:20.946Z,5.50
2018-12-02T04:27:49.374Z,5.60
2018-12-02T04:30:18.715Z,5.70
2018-12-02T04:32:49.054Z,5.60
2018-12-02T04:35:18.479Z,5.70
2018-12-02T04:37:46.860Z,5.60
2018-12-02T04:40:15.295Z,5.60
2018-12-02T04:42:43.712Z,5.60
2018-12-02T04:45:17.043Z,5.60
2018-12-02T04:47:45.537Z,5.50
2018-12-02T04:50:18.008Z,5.60
2018-12-02T04:52:46.451Z,5.50
2018-12-02T04:55:14.817Z,5.50
2018-12-02T04:57:43.357Z,5.50
2018-12-02T05:00:18.571Z,5.50
2018-12-02T05:02:50.749Z,5.50
2018-12-02T05:05:21.677Z,5.50
2018-12-02T05:07:50.092Z,5.40
2018-12-02T05:10:19.286Z,5.40
2018-12-02T05:12:47.926Z,5.40
2018-12-02T05:15:20.144Z,5.50
2018-12-02T05:17:48.595Z,5.50
2018-12-02T05:20:18.682Z,5.50
2018-12-02T05:22:47.117Z,5.50
2018-12-02T05:25:17.956Z,5.50
2018-12-02T05:27:44.661Z,5.60
2018-12-02T05:30:17.839Z,5.50
2018-12-02T05:32:47.207Z,5.60
2018-12-02T05:35:15.596Z,5.60
2018-12-02T05:37:43.952Z,5.60
2018-12-02T05:40:21.382Z,5.60
2018-12-02T05:42:49.893Z,5.60
2018-12-02T05:45:18.664Z,5.60
2018-12-02T05:47:47.029Z,5.50
2018-12-02T05:50:18.951Z,5.50
2018-12-02T05:52:54.853Z,5.50
2018-12-02T05:55:27.257Z,5.50
2018-12-02T05:57:56.355Z,5.50
2018-12-02T06:00:24.727Z,5.50
2018-12-02T06:02:53.078Z,5.50
2018-12-02T06:05:21.472Z,5.50
2018-12-02T06:07:49.794Z,5.50
2018-12-02T06:10:19.208Z,5.40
2018-12-02T06:12:47.560Z,5.40
2018-12-02T06:15:17.820Z,5.40
2018-12-02T06:17:46.187Z,5.40
2018-12-02T06:20:23.594Z,5.30
2018-12-02T06:22:53.053Z,5.30
2018-12-02T06:25:21.447Z,5.30
2018-12-02T06:27:49.843Z,5.40
2018-12-02T06:30:19.257Z,5.40
2018-12-02T06:32:48.434Z,5.40
2018-12-02T06:35:16.803Z,5.50
2018-12-02T06:37:45.271Z,5.50
2018-12-02T06:40:17.658Z,5.50
2018-12-02T06:42:46.036Z,5.50
2018-12-02T06:45:14.705Z,5.60
2018-12-02T06:47:43.106Z,5.60
2018-12-02T06:50:14.486Z,5.60
2018-12-02T06:52:42.897Z,5.60
2018-12-02T06:55:13.274Z,5.70
2018-12-02T06:57:42.368Z,5.60
2018-12-02T07:00:19.351Z,5.60
2018-12-02T07:02:56.223Z,5.60
2018-12-02T07:05:26.488Z,5.60
2018-12-02T07:07:54.875Z,5.70
2018-12-02T07:10:23.245Z,5.70
2018-12-02T07:12:51.635Z,5.70
2018-12-02T07:15:20.103Z,5.70
2018-12-02T07:17:48.660Z,5.70
2018-12-02T07:20:17.018Z,5.70
2018-12-02T07:22:45.421Z,5.60
2018-12-02T07:25:13.804Z,5.60
2018-12-02T07:27:42.242Z,5.70
2018-12-02T07:30:11.577Z,5.70
2018-12-02T07:32:39.991Z,5.70
2018-12-02T07:35:11.014Z,5.70
2018-12-02T07:37:46.759Z,5.70
2018-12-02T07:40:28.981Z,5.70
2018-12-02T07:42:57.427Z,5.70
2018-12-02T07:45:25.815Z,5.70
2018-12-02T07:47:54.225Z,5.70
2018-12-02T07:50:22.699Z,5.70
2018-12-02T07:52:51.085Z,5.70
2018-12-02T07:55:19.554Z,5.70
2018-12-02T07:57:48.386Z,5.60
2018-12-02T08:00:17.431Z,5.70
2018-12-02T08:02:45.824Z,5.70
2018-12-02T08:05:15.495Z,5.70
2018-12-02T08:07:44.539Z,5.60
2018-12-02T08:10:15.126Z,5.70
2018-12-02T08:12:43.502Z,5.60
2018-12-02T08:15:13.916Z,5.70
2018-12-02T08:17:42.336Z,5.70
2018-12-02T08:20:11.899Z,5.70
2018-12-02T08:22:40.470Z,5.70
2018-12-02T08:25:10.336Z,5.60
2018-12-02T08:27:38.671Z,5.70
2018-12-02T08:30:18.433Z,5.80
2018-12-02T08:32:46.779Z,5.80
2018-12-02T08:35:16.293Z,5.80
2018-12-02T08:37:46.028Z,5.80
2018-12-02T08:40:14.392Z,5.80
2018-12-02T08:42:42.808Z,5.80
2018-12-02T08:45:16.085Z,5.90
2018-12-02T08:47:44.901Z,6.00
2018-12-02T08:50:15.222Z,6.00
2018-12-02T08:52:43.640Z,6.10
2018-12-02T08:55:13.110Z,6.10
2018-12-02T08:57:41.457Z,6.00
2018-12-02T09:00:13.029Z,6.10
2018-12-02T09:02:41.522Z,6.10
2018-12-02T09:05:11.221Z,6.20
2018-12-02T09:07:39.650Z,6.20
2018-12-02T09:10:12.712Z,6.30
2018-12-02T09:12:41.080Z,6.30
2018-12-02T09:15:10.605Z,6.30
2018-12-02T09:17:38.993Z,6.30
2018-12-02T09:20:12.967Z,6.30
2018-12-02T09:22:41.338Z,6.40
2018-12-02T09:25:09.803Z,6.40
2018-12-02T09:27:38.158Z,6.40
2018-12-02T09:30:12.980Z,6.40
2018-12-02T09:32:41.358Z,6.50
2018-12-02T09:35:10.214Z,6.50
2018-12-02T09:37:38.655Z,6.50
2018-12-02T09:40:10.784Z,6.50
2018-12-02T09:42:39.313Z,6.50
2018-12-02T09:45:09.750Z,6.60
2018-12-02T09:47:38.250Z,6.60
2018-12-02T09:50:08.501Z,6.60
2018-12-02T09:52:36.966Z,6.70
2018-12-02T09:55:10.046Z,6.70
2018-12-02T09:57:38.519Z,6.70
2018-12-02T10:00:11.785Z,6.70
2018-12-02T10:02:40.171Z,6.80
2018-12-02T10:05:08.618Z,6.80
2018-12-02T10:07:37.032Z,6.90
2018-12-02T10:10:09.090Z,6.90
2018-12-02T10:12:37.681Z,7.00
2018-12-02T10:15:09.247Z,7.00
2018-12-02T10:17:37.943Z,7.00
2018-12-02T10:20:13.920Z,7.00
2018-12-02T10:22:42.469Z,7.10
2018-12-02T10:25:13.081Z,7.10
2018-12-02T10:27:42.403Z,7.20
2018-12-02T10:30:12.564Z,7.20
2018-12-02T10:32:40.989Z,7.30
2018-12-02T10:35:09.335Z,7.30
2018-12-02T10:37:37.758Z,7.30
2018-12-02T10:40:13.411Z,7.40
2018-12-02T10:42:41.837Z,7.40
2018-12-02T10:45:13.474Z,7.50
2018-12-02T10:47:42.157Z,7.50
2018-12-02T10:50:17.594Z,7.50
2018-12-02T10:52:46.016Z,7.50
2018-12-02T10:55:37.435Z,7.50
2018-12-02T10:58:08.369Z,7.50
2018-12-02T11:00:42.149Z,7.50
2018-12-02T11:03:10.514Z,7.50
2018-12-02T11:05:38.927Z,7.60
2018-12-02T11:08:07.831Z,7.60
2018-12-02T11:10:36.255Z,7.60
2018-12-02T11:13:04.763Z,7.60
2018-12-02T11:15:33.143Z,7.70
2018-12-02T11:18:01.563Z,7.60
2018-12-02T11:20:29.928Z,7.70
2018-12-02T11:22:58.357Z,7.70
2018-12-02T11:25:26.715Z,7.70
2018-12-02T11:27:55.114Z,7.70
2018-12-02T11:30:23.501Z,7.70
2018-12-02T11:32:51.856Z,7.70
2018-12-02T11:35:20.282Z,7.70
2018-12-02T11:37:48.657Z,7.80
2018-12-02T11:40:18.281Z,7.70
2018-12-02T11:42:46.743Z,7.80
2018-12-02T11:45:15.650Z,7.80
2018-12-02T11:47:47.007Z,7.80
2018-12-02T11:50:17.521Z,7.80
2018-12-02T11:52:45.876Z,7.80
2018-12-02T11:55:16.322Z,7.80
2018-12-02T11:57:44.699Z,7.80
2018-12-02T12:00:21.203Z,7.80
2018-12-02T12:02:49.601Z,7.80
2018-12-02T12:05:18.036Z,7.80
2018-12-02T12:07:47.511Z,7.90
2018-12-02T12:10:20.013Z,7.90
2018-12-02T12:12:49.279Z,7.90
2018-12-02T12:15:19.557Z,7.90
2018-12-02T12:17:48.011Z,7.90
2018-12-02T12:20:18.538Z,7.90
2018-12-02T12:22:46.909Z,7.90
2018-12-02T12:25:15.323Z,7.90
2018-12-02T12:27:43.740Z,7.90
2018-12-02T12:30:14.735Z,7.90
2018-12-02T12:32:43.089Z,7.90
2018-12-02T12:35:12.835Z,7.90
2018-12-02T12:37:41.217Z,7.90
2018-12-02T12:40:19.394Z,7.80
2018-12-02T12:42:52.525Z,7.90
2018-12-02T12:45:20.997Z,7.80
2018-12-02T12:47:49.460Z,7.90
2018-12-02T12:50:17.944Z,7.90
2018-12-02T12:52:46.421Z,7.90
2018-12-02T12:55:16.843Z,7.80
2018-12-02T12:57:45.613Z,7.80
2018-12-02T13:00:16.972Z,7.80
2018-12-02T13:02:45.445Z,7.80
2018-12-02T13:05:16.300Z,7.80
2018-12-02T13:07:44.713Z,7.80
2018-12-02T13:10:14.208Z,7.70
2018-12-02T13:12:42.707Z,7.80
2018-12-02T13:15:12.354Z,7.70
2018-12-02T13:17:41.327Z,7.70
2018-12-02T13:20:14.798Z,7.70
2018-12-02T13:22:43.260Z,7.60
2018-12-02T13:25:12.632Z,7.50
2018-12-02T13:27:41.744Z,7.60
2018-12-02T13:30:15.062Z,7.60
2018-12-02T13:32:44.377Z,7.50
2018-12-02T13:35:12.935Z,7.50
2018-12-02T13:37:41.335Z,7.60
2018-12-02T13:40:12.890Z,7.50
2018-12-02T13:42:41.854Z,7.60
2018-12-02T13:45:11.864Z,7.60
2018-12-02T13:47:40.336Z,7.50
2018-12-02T13:50:16.623Z,7.50
2018-12-02T13:52:45.422Z,7.50
2018-12-02T13:55:15.829Z,7.50
2018-12-02T13:57:44.421Z,7.40
2018-12-02T14:00:15.379Z,7.40
2018-12-02T14:02:44.656Z,7.40
2018-12-02T14:05:13.052Z,7.40
2018-12-02T14:07:41.504Z,7.40
2018-12-02T14:10:11.169Z,7.40
2018-12-02T14:12:48.654Z,7.30
2018-12-02T14:16:26.320Z,7.30
2018-12-02T14:18:55.495Z,7.30
2018-12-02T14:21:23.867Z,7.20
2018-12-02T14:23:52.264Z,7.30
2018-12-02T14:26:22.241Z,7.20
2018-12-02T14:29:03.112Z,7.20
2018-12-02T14:31:33.922Z,7.20
2018-12-02T14:34:02.438Z,7.20
2018-12-02T14:36:30.825Z,7.20
2018-12-02T14:38:59.359Z,7.20
2018-12-02T14:41:27.801Z,7.10
2018-12-02T14:43:56.178Z,7.10
2018-12-02T14:46:24.616Z,7.10
2018-12-02T14:48:53.675Z,7.10
2018-12-02T14:51:22.326Z,7.10
2018-12-02T14:53:50.855Z,7.10
2018-12-02T14:56:19.294Z,7.10
2018-12-02T14:58:47.716Z,7.10
2018-12-02T15:01:16.086Z,7.10
2018-12-02T15:03:44.483Z,7.00
2018-12-02T15:06:12.908Z,7.10
2018-12-02T15:08:41.840Z,7.10
2018-12-02T15:11:09.894Z,7.10
2018-12-02T15:13:38.350Z,7.10
2018-12-02T15:16:06.970Z,7.10
2018-12-02T15:18:35.352Z,7.10
2018-12-02T15:21:03.910Z,7.00
2018-12-02T15:23:32.382Z,7.00
2018-12-02T15:26:00.873Z,7.00
2018-12-02T15:28:29.293Z,7.00
2018-12-02T15:30:57.735Z,7.00
2018-12-02T15:33:26.939Z,7.00
2018-12-02T15:35:55.345Z,7.10
2018-12-02T15:38:23.886Z,7.10
2018-12-02T15:40:52.654Z,7.10
2018-12-02T15:43:21.033Z,7.10
2018-12-02T15:45:49.454Z,7.10
2018-12-02T15:48:17.830Z,7.10
2018-12-02T15:50:50.421Z,7.10
2018-12-02T15:53:14.746Z,7.10
2018-12-02T15:55:43.186Z,7.10
2018-12-02T15:58:13.346Z,7.00
2018-12-02T16:00:43.683Z,7.00
2018-12-02T16:03:12.170Z,7.10
2018-12-02T16:05:40.618Z,7.10
2018-12-02T16:08:09.215Z,7.10
2018-12-02T16:10:41.706Z,7.10
2018-12-02T16:13:11.666Z,7.00
2018-12-02T16:15:40.217Z,7.10
2018-12-02T16:18:10.805Z,7.10
2018-12-02T16:20:45.782Z,7.10
2018-12-02T16:23:15.901Z,7.10
2018-12-02T16:25:44.398Z,7.10
2018-12-02T16:28:12.877Z,7.20
2018-12-02T16:30:41.296Z,7.10
2018-12-02T16:33:09.809Z,7.10
2018-12-02T16:35:38.215Z,7.20
2018-12-02T16:38:08.233Z,7.20
2018-12-02T16:40:36.669Z,7.30
2018-12-02T16:43:05.387Z,7.50
2018-12-02T16:45:33.781Z,7.90
2018-12-02T16:48:02.254Z,7.90
2018-12-02T16:50:34.643Z,7.80
2018-12-02T16:53:06.103Z,7.70
2018-12-02T16:55:36.582Z,7.60
2018-12-02T16:59:15.645Z,7.60
2018-12-02T17:01:46.224Z,7.50
2018-12-02T17:04:15.143Z,7.50
2018-12-02T17:06:43.699Z,7.50
2018-12-02T17:09:12.983Z,7.60
2018-12-02T17:11:42.424Z,7.60
2018-12-02T17:14:10.834Z,7.60
2018-12-02T17:16:39.261Z,7.70
2018-12-02T17:19:08.027Z,7.70
2018-12-02T17:21:36.407Z,7.60
2018-12-02T17:24:05.937Z,7.70
2018-12-02T17:26:34.560Z,7.70
2018-12-02T17:29:03.180Z,7.60
2018-12-02T17:32:06.633Z,7.60
2018-12-02T17:34:35.083Z,7.60
2018-12-02T17:37:03.503Z,7.60
2018-12-02T17:39:33.248Z,7.70
2018-12-02T17:42:03.762Z,7.70
2018-12-02T17:44:32.176Z,7.80
2018-12-02T17:47:00.593Z,7.70
2018-12-02T17:49:28.966Z,7.70
2018-12-02T17:51:57.406Z,7.70
2018-12-02T17:54:25.813Z,7.80
2018-12-02T17:56:54.403Z,7.80
2018-12-02T17:59:22.861Z,7.80
2018-12-02T18:01:51.231Z,7.90
2018-12-02T18:04:19.647Z,7.90
2018-12-02T18:06:48.042Z,7.90
2018-12-02T18:09:16.453Z,7.90
2018-12-02T18:11:44.972Z,8.00
2018-12-02T18:14:13.480Z,8.00
2018-12-02T18:16:42.146Z,8.00
2018-12-02T18:19:10.515Z,8.00
2018-12-02T18:21:39.076Z,8.00
2018-12-02T18:24:07.499Z,8.10
2018-12-02T18:26:35.957Z,8.10
2018-12-02T18:29:04.422Z,8.10
2018-12-02T18:31:32.869Z,8.20
2018-12-02T18:34:01.240Z,8.20
2018-12-02T18:36:32.645Z,8.20
2018-12-02T18:39:01.015Z,8.20
2018-12-02T18:41:38.133Z,8.20
2018-12-02T18:44:09.370Z,8.20
2018-12-02T18:46:37.793Z,8.30
2018-12-02T18:49:06.209Z,8.30
2018-12-02T18:51:34.659Z,8.40
2018-12-02T18:54:03.033Z,8.40
2018-12-02T18:56:31.514Z,8.40
2018-12-02T18:58:59.961Z,8.40
2018-12-02T19:01:28.444Z,8.50
2018-12-02T19:03:56.818Z,8.50
2018-12-02T19:09:09.975Z,8.60
2018-12-02T19:11:38.431Z,8.60
2018-12-02T19:14:06.807Z,8.70
2018-12-02T19:16:35.539Z,8.70
2018-12-02T19:19:03.685Z,8.80
2018-12-02T19:21:32.200Z,8.80
2018-12-02T19:24:00.589Z,8.80
2018-12-02T19:26:29.016Z,8.90
2018-12-02T19:28:57.453Z,8.90
2018-12-02T19:31:25.932Z,8.90
2018-12-02T19:33:56.120Z,9.00
2018-12-02T19:36:28.154Z,9.00
2018-12-02T19:38:56.606Z,9.00
2018-12-02T19:41:24.992Z,9.00
2018-12-02T19:43:53.283Z,9.00
2018-12-02T19:46:21.653Z,9.10
2018-12-02T19:48:50.552Z,9.10
2018-12-02T19:51:18.954Z,9.10
2018-12-02T19:53:47.307Z,9.20
2018-12-02T19:56:15.623Z,9.20
2018-12-02T19:58:43.981Z,9.20
2018-12-02T20:01:12.370Z,9.20
2018-12-02T20:03:40.790Z,9.20
2018-12-02T20:06:09.823Z,9.20
2018-12-02T20:08:38.136Z,9.30
2018-12-02T20:11:06.559Z,9.30
2018-12-02T20:13:34.892Z,9.30
2018-12-02T20:16:08.619Z,9.40
2018-12-02T20:18:36.987Z,9.40
2018-12-02T20:21:06.057Z,9.30
2018-12-02T20:23:39.849Z,9.40
2018-12-02T20:26:08.204Z,9.40
2018-12-02T20:28:45.745Z,9.40
2018-12-02T20:31:16.671Z,9.40
2018-12-02T20:33:45.045Z,9.40
2018-12-02T20:36:13.449Z,9.50
2018-12-02T20:38:41.755Z,9.50
2018-12-02T20:41:10.161Z,9.50
2018-12-02T20:43:38.564Z,9.50
2018-12-02T20:46:06.929Z,9.50
2018-12-02T20:48:35.307Z,9.50
2018-12-02T20:51:03.669Z,9.60
2018-12-02T20:53:32.028Z,9.50
2018-12-02T20:56:00.397Z,9.60
2018-12-02T20:58:28.814Z,9.50
2018-12-02T21:00:57.261Z,9.50
2018-12-02T21:03:28.299Z,9.50
2018-12-02T21:06:02.542Z,9.50
2018-12-02T21:08:30.887Z,9.50
2018-12-02T21:10:59.253Z,9.50
2018-12-02T21:13:27.656Z,9.50
2018-12-02T21:15:55.953Z,9.50
2018-12-02T21:18:24.277Z,9.50
2018-12-02T21:20:52.678Z,9.60
2018-12-02T21:23:20.972Z,9.60
2018-12-02T21:25:55.983Z,9.60
2018-12-02T21:28:25.571Z,9.60
2018-12-02T21:30:53.936Z,9.60
2018-12-02T21:33:22.263Z,9.60
2018-12-02T21:35:51.431Z,9.70
2018-12-02T21:38:19.783Z,9.70
2018-12-02T21:40:48.139Z,9.70
2018-12-02T21:43:16.693Z,9.70
2018-12-02T21:45:45.005Z,9.70
2018-12-02T21:48:16.143Z,9.70
2018-12-02T21:50:46.313Z,9.70
2018-12-02T21:53:14.609Z,9.80
2018-12-02T21:55:42.918Z,9.80
2018-12-02T21:58:11.246Z,9.80
2018-12-02T22:00:44.626Z,9.80
2018-12-02T22:03:14.211Z,9.90
2018-12-02T22:05:42.679Z,9.90
2018-12-02T22:08:11.010Z,10.00
2018-12-02T22:10:39.362Z,10.00
2018-12-02T22:13:14.491Z,10.00
2018-12-02T22:15:42.834Z,10.10
2018-12-02T22:18:11.132Z,10.20
2018-12-02T22:20:39.495Z,10.20
2018-12-02T22:23:07.791Z,10.30
2018-12-02T22:25:36.101Z,10.30
2018-12-02T22:28:04.525Z,10.20
2018-12-02T22:30:32.924Z,10.20
2018-12-02T22:33:01.296Z,10.20
2018-12-02T22:35:29.638Z,10.20
2018-12-02T22:37:57.982Z,10.20
2018-12-02T22:40:26.330Z,10.20
2018-12-02T22:42:55.410Z,10.20
2018-12-02T22:45:25.893Z,10.20
2018-12-02T22:47:54.272Z,10.20
2018-12-02T22:50:23.662Z,10.10
2018-12-02T22:52:53.055Z,10.10
2018-12-02T22:55:21.464Z,10.10
2018-12-02T22:57:49.797Z,10.10
2018-12-02T23:00:28.609Z,10.10
2018-12-02T23:03:07.012Z,10.00
2018-12-02T23:05:35.417Z,10.00
2018-12-02T23:08:03.711Z,10.00
2018-12-02T23:10:32.094Z,9.90
2018-12-02T23:13:00.407Z,9.90
2018-12-02T23:15:28.793Z,9.90
2018-12-02T23:17:57.114Z,9.80
2018-12-02T23:20:25.408Z,9.80
2018-12-02T23:22:53.753Z,9.80
2018-12-02T23:25:22.057Z,9.80
2018-12-02T23:27:50.385Z,9.80
2018-12-02T23:30:19.726Z,9.80
2018-12-02T23:32:48.152Z,9.70
2018-12-02T23:35:16.461Z,9.70
2018-12-02T23:37:44.751Z,9.70
2018-12-02T23:40:15.094Z,9.70
2018-12-02T23:42:43.431Z,9.70
2018-12-02T23:45:12.625Z,9.80
2018-12-02T23:47:41.068Z,9.70
2018-12-02T23:50:10.570Z,9.80
2018-12-02T23:52:38.950Z,9.80
2018-12-02T23:55:11.090Z,9.90
2018-12-02T23:57:39.540Z,9.90
